DTTB

Sidi Ahmed Air Base Airport

Sidi Ahmed, Tunisia
METAR DTTB 122000Z 25003KT 8000 SCT016 SCT030 12/10 Q1018
Observed Flight Rules
Dec-12 @ 20:00 UTC (an hour ago) Marginal Visual Flight Rules
Wind Visibility Clouds
250° at 3 knots 7,998 meters
  • Scattered at 1,600' AGL
  • Scattered at 3,000' AGL
Temperatures Readings
Current 12°C / 54°F
Dewpoint 10°C / 50°F
Humidity 88%
Altimeter 30.06" Hg
Pressure 1018 hPa
Elevation 3
METAR DTTB 122000Z 25003KT 8000 SCT016 SCT030 12/10 Q1018
Observed Flight Rules
Dec-12 @ 20:00 UTC
(an hour ago)
MVFR
Wind Visibility
250° at 3 knots 7,998 meters
Clouds
  • Scattered at 1,600' AGL
  • Scattered at 3,000' AGL
Temperature Dewpoint
12°C / 54°F 10°C / 50°F
Humidity Altimeter Pressure
88% 30.06" Hg 1018 hPa